createdAt,value
2018-12-01T00:00:36.089Z,97.60
2018-12-01T00:03:04.705Z,97.60
2018-12-01T00:05:33.206Z,97.70
2018-12-01T00:08:01.707Z,97.70
2018-12-01T00:10:30.210Z,97.40
2018-12-01T00:12:59.076Z,97.70
2018-12-01T00:15:28.772Z,97.80
2018-12-01T00:17:57.396Z,97.80
2018-12-01T00:20:28.464Z,97.80
2018-12-01T00:22:56.995Z,97.80
2018-12-01T00:25:25.499Z,97.90
2018-12-01T00:27:54.008Z,98.00
2018-12-01T00:30:24.072Z,97.90
2018-12-01T00:32:53.254Z,98.00
2018-12-01T00:35:21.754Z,98.10
2018-12-01T00:37:50.235Z,98.10
2018-12-01T00:40:19.698Z,98.10
2018-12-01T00:42:48.261Z,98.20
2018-12-01T00:45:17.800Z,98.20
2018-12-01T00:47:48.150Z,98.20
2018-12-01T00:50:18.682Z,98.20
2018-12-01T00:52:48.151Z,98.30
2018-12-01T00:55:17.566Z,98.30
2018-12-01T00:57:46.320Z,98.30
2018-12-01T01:00:19.105Z,98.40
2018-12-01T01:02:50.856Z,98.40
2018-12-01T01:05:19.878Z,98.40
2018-12-01T01:07:48.374Z,98.40
2018-12-01T01:10:16.939Z,98.40
2018-12-01T01:12:45.455Z,98.40
2018-12-01T01:15:14.007Z,98.40
2018-12-01T01:17:42.581Z,98.40
2018-12-01T01:20:14.257Z,98.40
2018-12-01T01:22:42.803Z,98.30
2018-12-01T01:25:12.054Z,98.30
2018-12-01T01:27:40.643Z,98.30
2018-12-01T01:30:13.509Z,98.40
2018-12-01T01:32:42.015Z,98.40
2018-12-01T01:35:10.520Z,98.40
2018-12-01T01:37:39.017Z,98.40
2018-12-01T01:40:12.587Z,98.50
2018-12-01T01:42:41.139Z,98.40
2018-12-01T01:45:17.412Z,98.50
2018-12-01T01:47:45.989Z,98.50
2018-12-01T01:50:17.582Z,98.50
2018-12-01T01:52:46.083Z,98.50
2018-12-01T01:55:14.576Z,98.50
2018-12-01T01:57:43.091Z,98.60
2018-12-01T02:00:16.591Z,98.50
2018-12-01T02:02:48.051Z,98.60
2018-12-01T02:05:17.381Z,98.60
2018-12-01T02:07:45.865Z,98.60
2018-12-01T02:10:15.341Z,98.60
2018-12-01T02:12:43.835Z,98.60
2018-12-01T02:15:12.960Z,98.60
2018-12-01T02:17:41.419Z,98.60
2018-12-01T02:20:13.814Z,98.60
2018-12-01T02:22:42.318Z,98.60
2018-12-01T02:25:14.760Z,98.60
2018-12-01T02:27:43.287Z,98.60
2018-12-01T02:30:16.969Z,98.60
2018-12-01T02:32:45.612Z,98.60
2018-12-01T02:35:16.143Z,98.60
2018-12-01T02:37:44.606Z,98.60
2018-12-01T02:40:13.678Z,98.70
2018-12-01T02:42:42.984Z,98.70
2018-12-01T02:45:22.852Z,98.70
2018-12-01T02:47:51.348Z,98.70
2018-12-01T02:50:29.642Z,98.60
2018-12-01T02:53:00.141Z,98.60
2018-12-01T02:55:28.811Z,98.60
2018-12-01T02:57:57.277Z,98.60
2018-12-01T03:00:25.784Z,98.60
2018-12-01T03:02:54.310Z,98.60
2018-12-01T03:05:23.448Z,98.60
2018-12-01T03:07:52.712Z,98.60
2018-12-01T03:10:21.662Z,98.60
2018-12-01T03:12:51.111Z,98.60
2018-12-01T03:15:20.200Z,98.70
2018-12-01T03:17:50.576Z,98.70
2018-12-01T03:20:19.177Z,98.70
2018-12-01T03:22:47.685Z,98.70
2018-12-01T03:25:18.496Z,98.80
2018-12-01T03:27:47.460Z,98.70
2018-12-01T03:30:20.663Z,98.70
2018-12-01T03:32:50.084Z,98.70
2018-12-01T03:35:19.034Z,98.70
2018-12-01T03:37:48.475Z,98.70
2018-12-01T03:40:17.749Z,98.70
2018-12-01T03:42:46.288Z,98.70
2018-12-01T03:45:15.853Z,98.70
2018-12-01T03:47:44.401Z,98.80
2018-12-01T03:50:13.957Z,98.80
2018-12-01T03:52:42.419Z,98.80
2018-12-01T03:55:32.244Z,98.90
2018-12-01T03:58:00.943Z,98.80
2018-12-01T04:00:31.158Z,98.80
2018-12-01T04:03:00.714Z,98.80
2018-12-01T04:05:29.328Z,98.80
2018-12-01T04:07:58.304Z,98.90
2018-12-01T04:10:26.850Z,98.90
2018-12-01T04:12:55.704Z,99.00
2018-12-01T04:15:24.370Z,99.00
2018-12-01T04:17:52.872Z,99.20
2018-12-01T04:20:21.462Z,99.00
2018-12-01T04:22:49.934Z,98.90
2018-12-01T04:25:18.496Z,98.60
2018-12-01T04:27:46.966Z,98.90
2018-12-01T04:30:20.662Z,98.90
2018-12-01T04:32:49.353Z,98.80
2018-12-01T04:35:18.751Z,98.80
2018-12-01T04:37:48.272Z,98.80
2018-12-01T04:40:16.798Z,98.80
2018-12-01T04:42:46.171Z,98.80
2018-12-01T04:45:14.705Z,98.90
2018-12-01T04:47:43.252Z,98.90
2018-12-01T04:50:14.045Z,98.90
2018-12-01T04:52:42.654Z,98.90
2018-12-01T04:55:13.086Z,98.90
2018-12-01T04:57:41.583Z,99.00
2018-12-01T05:00:13.321Z,99.00
2018-12-01T05:02:41.806Z,99.00
2018-12-01T05:05:12.459Z,99.00
2018-12-01T05:07:40.922Z,99.00
2018-12-01T05:10:10.739Z,99.10
2018-12-01T05:12:39.241Z,99.20
2018-12-01T05:15:13.767Z,99.20
2018-12-01T05:17:42.291Z,99.20
2018-12-01T05:20:13.809Z,99.30
2018-12-01T05:22:42.328Z,99.30
2018-12-01T05:25:11.191Z,99.40
2018-12-01T05:27:39.660Z,99.30
2018-12-01T05:30:10.453Z,99.20
2018-12-01T05:32:39.858Z,99.30
2018-12-01T05:35:19.552Z,99.30
2018-12-01T05:37:48.980Z,99.30
2018-12-01T05:40:17.492Z,99.50
2018-12-01T05:42:46.004Z,99.40
2018-12-01T05:45:23.062Z,99.40
2018-12-01T05:47:52.269Z,99.40
2018-12-01T05:50:26.731Z,99.40
2018-12-01T05:52:57.243Z,99.40
2018-12-01T05:55:25.815Z,99.70
2018-12-01T05:57:54.855Z,99.40
2018-12-01T06:00:26.576Z,99.40
2018-12-01T06:02:55.066Z,99.30
2018-12-01T06:05:23.671Z,99.30
2018-12-01T06:07:52.167Z,99.30
2018-12-01T06:10:22.440Z,99.30
2018-12-01T06:12:52.310Z,99.20
2018-12-01T06:15:21.825Z,99.20
2018-12-01T06:17:50.318Z,99.20
2018-12-01T06:20:21.983Z,99.20
2018-12-01T06:22:50.487Z,99.10
2018-12-01T06:25:20.051Z,99.10
2018-12-01T06:27:48.537Z,99.10
2018-12-01T06:30:18.800Z,99.10
2018-12-01T06:32:48.235Z,99.00
2018-12-01T06:35:16.734Z,99.00
2018-12-01T06:37:45.301Z,99.00
2018-12-01T06:40:16.622Z,99.00
2018-12-01T06:42:45.139Z,99.00
2018-12-01T06:45:14.627Z,98.90
2018-12-01T06:47:43.152Z,98.90
2018-12-01T06:50:17.488Z,98.90
2018-12-01T06:52:45.938Z,98.90
2018-12-01T06:55:14.797Z,99.20
2018-12-01T06:57:44.381Z,98.90
2018-12-01T07:00:19.014Z,98.90
2018-12-01T07:02:48.019Z,98.80
2018-12-01T07:05:17.119Z,98.80
2018-12-01T07:07:45.624Z,98.80
2018-12-01T07:10:15.093Z,98.80
2018-12-01T07:12:45.237Z,98.80
2018-12-01T07:15:15.733Z,98.80
2018-12-01T07:17:44.182Z,98.80
2018-12-01T07:20:12.671Z,99.10
2018-12-01T07:22:41.142Z,98.70
2018-12-01T07:25:09.702Z,98.70
2018-12-01T07:27:38.166Z,98.70
2018-12-01T07:30:10.077Z,98.70
2018-12-01T07:32:39.669Z,98.70
2018-12-01T07:35:08.749Z,98.80
2018-12-01T07:37:37.492Z,98.70
2018-12-01T07:40:10.694Z,98.80
2018-12-01T07:42:42.076Z,98.80
2018-12-01T07:45:12.727Z,98.70
2018-12-01T07:47:41.209Z,98.80
2018-12-01T07:50:12.980Z,98.70
2018-12-01T07:52:42.219Z,98.80
2018-12-01T07:55:10.695Z,98.80
2018-12-01T07:57:39.175Z,98.80
2018-12-01T08:00:10.365Z,98.80
2018-12-01T08:02:39.035Z,98.80
2018-12-01T08:05:08.853Z,98.70
2018-12-01T08:07:37.390Z,98.70
2018-12-01T08:10:11.344Z,98.70
2018-12-01T08:12:39.830Z,98.70
2018-12-01T08:15:12.618Z,98.70
2018-12-01T08:17:41.950Z,98.70
2018-12-01T08:20:11.558Z,98.80
2018-12-01T08:22:40.045Z,98.80
2018-12-01T08:25:10.306Z,98.70
2018-12-01T08:27:39.413Z,98.70
2018-12-01T08:30:21.057Z,98.60
2018-12-01T08:32:50.050Z,98.50
2018-12-01T08:35:18.680Z,98.50
2018-12-01T08:37:51.116Z,98.50
2018-12-01T08:40:21.107Z,98.50
2018-12-01T08:42:50.275Z,98.40
2018-12-01T08:45:18.897Z,98.40
2018-12-01T08:47:47.489Z,98.30
2018-12-01T08:50:19.870Z,98.30
2018-12-01T08:52:48.469Z,98.30
2018-12-01T08:55:21.141Z,98.30
2018-12-01T08:57:50.163Z,98.30
2018-12-01T09:00:22.008Z,98.20
2018-12-01T09:02:53.125Z,98.30
2018-12-01T09:05:21.656Z,98.40
2018-12-01T09:07:50.165Z,98.30
2018-12-01T09:10:18.677Z,98.30
2018-12-01T09:12:47.168Z,98.30
2018-12-01T09:15:16.033Z,98.20
2018-12-01T09:17:44.527Z,98.10
2018-12-01T09:20:13.834Z,98.30
2018-12-01T09:22:45.441Z,98.00
2018-12-01T09:25:15.019Z,97.90
2018-12-01T09:27:43.535Z,97.90
2018-12-01T09:30:20.123Z,97.90
2018-12-01T09:32:48.800Z,97.70
2018-12-01T09:35:17.337Z,97.70
2018-12-01T09:37:45.850Z,97.60
2018-12-01T09:40:15.788Z,97.60
2018-12-01T09:42:44.507Z,97.60
2018-12-01T09:45:14.143Z,97.60
2018-12-01T09:47:43.495Z,97.50
2018-12-01T09:50:14.054Z,97.60
2018-12-01T09:52:43.349Z,97.50
2018-12-01T09:55:23.011Z,97.50
2018-12-01T09:57:52.443Z,97.60
2018-12-01T10:00:31.661Z,97.50
2018-12-01T10:03:02.261Z,97.50
2018-12-01T10:05:31.119Z,97.30
2018-12-01T10:07:59.724Z,97.30
2018-12-01T10:10:28.404Z,97.30
2018-12-01T10:12:57.629Z,97.20
2018-12-01T10:15:28.220Z,97.10
2018-12-01T10:17:56.763Z,97.10
2018-12-01T10:20:34.021Z,96.90
2018-12-01T10:23:05.883Z,96.90
2018-12-01T10:25:34.408Z,96.90
2018-12-01T10:28:02.983Z,96.80
2018-12-01T10:30:31.491Z,96.80
2018-12-01T10:33:00.028Z,96.70
2018-12-01T10:35:28.589Z,96.70
2018-12-01T10:38:13.489Z,96.50
2018-12-01T10:40:41.969Z,96.40
2018-12-01T10:43:10.460Z,96.20
2018-12-01T10:45:39.344Z,95.70
2018-12-01T10:48:09.015Z,96.10
2018-12-01T10:50:37.808Z,96.10
2018-12-01T10:53:06.712Z,96.00
2018-12-01T10:55:35.697Z,95.70
2018-12-01T10:58:17.489Z,95.80
2018-12-01T11:00:52.237Z,95.70
2018-12-01T11:03:26.258Z,95.40
2018-12-01T11:05:56.025Z,95.30
2018-12-01T11:08:24.695Z,95.30
2018-12-01T11:10:55.358Z,95.20
2018-12-01T11:13:21.728Z,95.20
2018-12-01T11:15:50.826Z,95.20
2018-12-01T11:18:19.312Z,95.10
2018-12-01T11:20:47.843Z,94.90
2018-12-01T11:23:16.344Z,95.00
2018-12-01T11:25:44.846Z,95.00
2018-12-01T11:28:13.371Z,94.80
2018-12-01T11:30:42.932Z,94.50
2018-12-01T11:33:11.443Z,94.60
2018-12-01T11:35:40.333Z,94.50
2018-12-01T11:38:09.479Z,94.60
2018-12-01T11:40:38.040Z,94.30
2018-12-01T11:43:08.118Z,93.90
2018-12-01T11:45:36.624Z,93.90
2018-12-01T11:48:05.475Z,93.70
2018-12-01T11:50:33.970Z,93.70
2018-12-01T11:53:02.501Z,93.70
2018-12-01T11:55:31.002Z,93.50
2018-12-01T11:57:59.506Z,93.30
2018-12-01T12:00:28.115Z,93.30
2018-12-01T12:02:56.755Z,93.40
2018-12-01T12:05:25.278Z,93.30
2018-12-01T12:08:05.031Z,93.00
2018-12-01T12:10:34.319Z,93.00
2018-12-01T12:13:02.829Z,93.00
2018-12-01T12:15:31.317Z,93.00
2018-12-01T12:18:01.197Z,92.80
2018-12-01T12:20:30.512Z,92.80
2018-12-01T12:22:59.451Z,93.00
2018-12-01T12:25:27.965Z,93.10
2018-12-01T12:27:56.512Z,93.00
2018-12-01T12:30:25.913Z,93.00
2018-12-01T12:32:53.688Z,92.90
2018-12-01T12:35:22.242Z,93.00
2018-12-01T12:37:50.747Z,92.90
2018-12-01T12:40:24.052Z,92.70
2018-12-01T12:42:55.431Z,92.70
2018-12-01T12:45:23.940Z,92.60
2018-12-01T12:47:52.476Z,92.50
2018-12-01T12:50:21.012Z,92.50
2018-12-01T12:52:50.543Z,92.40
2018-12-01T12:55:22.842Z,92.30
2018-12-01T12:57:51.344Z,92.20
2018-12-01T13:00:21.027Z,92.10
2018-12-01T13:02:57.918Z,92.10
2018-12-01T13:05:27.749Z,91.90
2018-12-01T13:07:56.279Z,92.00
2018-12-01T13:10:25.642Z,91.90
2018-12-01T13:12:54.167Z,91.90
2018-12-01T13:15:22.679Z,91.90
2018-12-01T13:17:51.137Z,91.70
2018-12-01T13:20:21.399Z,91.80
2018-12-01T13:22:52.946Z,91.60
2018-12-01T13:25:21.464Z,91.20
2018-12-01T13:27:53.030Z,91.20
2018-12-01T13:30:23.734Z,91.30
2018-12-01T13:32:52.266Z,90.90
2018-12-01T13:35:20.867Z,90.90
2018-12-01T13:37:49.373Z,90.70
2018-12-01T13:40:17.951Z,90.70
2018-12-01T13:42:47.162Z,90.70
2018-12-01T13:45:17.813Z,90.60
2018-12-01T13:47:48.068Z,90.50
2018-12-01T13:50:18.468Z,90.30
2018-12-01T13:52:50.971Z,90.10
2018-12-01T13:55:19.507Z,90.20
2018-12-01T13:57:48.295Z,90.20
2018-12-01T14:00:20.312Z,90.10
2018-12-01T14:02:48.793Z,90.10
2018-12-01T14:05:17.289Z,90.20
2018-12-01T14:07:45.919Z,90.20
2018-12-01T14:10:15.995Z,90.10
2018-12-01T14:12:45.774Z,90.20
2018-12-01T14:15:16.411Z,90.30
2018-12-01T14:17:44.944Z,90.50
2018-12-01T14:20:14.709Z,90.50
2018-12-01T14:22:43.930Z,90.40
2018-12-01T14:25:13.161Z,90.20
2018-12-01T14:27:43.198Z,90.20
2018-12-01T14:30:14.440Z,90.20
2018-12-01T14:32:43.427Z,90.20
2018-12-01T14:35:21.310Z,90.20
2018-12-01T14:37:54.371Z,90.30
2018-12-01T14:40:23.267Z,90.40
2018-12-01T14:42:53.505Z,90.40
2018-12-01T14:45:22.097Z,90.40
2018-12-01T14:47:50.811Z,90.40
2018-12-01T14:50:19.327Z,90.50
2018-12-01T14:52:48.305Z,90.60
2018-12-01T14:55:17.520Z,90.60
2018-12-01T14:57:46.834Z,90.60
2018-12-01T15:00:23.446Z,90.60
2018-12-01T15:02:52.895Z,90.50
2018-12-01T15:05:21.499Z,90.50
2018-12-01T15:07:50.402Z,90.60
2018-12-01T15:10:20.905Z,90.60
2018-12-01T15:12:49.447Z,90.70
2018-12-01T15:15:21.317Z,90.60
2018-12-01T15:17:49.820Z,90.70
2018-12-01T15:20:20.065Z,90.70
2018-12-01T15:22:50.045Z,90.80
2018-12-01T15:25:21.397Z,90.90
2018-12-01T15:27:49.916Z,90.60
2018-12-01T15:30:20.493Z,90.70
2018-12-01T15:33:01.074Z,90.70
2018-12-01T15:35:29.602Z,90.80
2018-12-01T15:37:58.231Z,90.80
2018-12-01T15:40:26.808Z,90.90
2018-12-01T15:42:55.395Z,90.90
2018-12-01T15:45:24.237Z,90.90
2018-12-01T15:47:54.120Z,91.00
2018-12-01T15:50:22.129Z,91.30
2018-12-01T15:52:53.852Z,91.10
2018-12-01T15:55:23.360Z,91.10
2018-12-01T15:57:52.027Z,91.20
2018-12-01T16:00:23.441Z,91.30
2018-12-01T16:02:52.003Z,91.60
2018-12-01T16:05:21.320Z,91.20
2018-12-01T16:07:53.044Z,91.40
2018-12-01T16:10:23.713Z,91.50
2018-12-01T16:13:02.741Z,91.20
2018-12-01T16:15:36.520Z,91.20
2018-12-01T16:18:08.734Z,91.00
2018-12-01T16:20:38.425Z,91.00
2018-12-01T16:23:09.102Z,90.90
2018-12-01T16:25:56.738Z,90.80
2018-12-01T16:28:27.546Z,90.70
2018-12-01T16:30:58.183Z,90.70
2018-12-01T16:33:28.373Z,90.50
2018-12-01T16:35:57.009Z,90.50
2018-12-01T16:38:30.336Z,90.50
2018-12-01T16:41:01.515Z,90.50
2018-12-01T16:43:32.785Z,90.50
2018-12-01T16:46:01.306Z,90.50
2018-12-01T16:48:29.938Z,90.50
2018-12-01T16:50:58.460Z,90.50
2018-12-01T16:53:27.016Z,90.40
2018-12-01T16:55:55.539Z,90.40
2018-12-01T16:58:24.153Z,90.40
2018-12-01T17:00:53.106Z,90.50
2018-12-01T17:03:21.719Z,90.90
2018-12-01T17:05:53.853Z,90.50
2018-12-01T17:08:22.380Z,90.40
2018-12-01T17:10:52.395Z,90.40
2018-12-01T17:13:20.961Z,90.50
2018-12-01T17:15:49.549Z,90.50
2018-12-01T17:18:18.213Z,90.50
2018-12-01T17:20:47.748Z,90.50
2018-12-01T17:23:17.071Z,90.50
2018-12-01T17:25:45.612Z,90.60
2018-12-01T17:28:16.804Z,90.60
2018-12-01T17:30:45.409Z,90.50
2018-12-01T17:33:13.929Z,90.50
2018-12-01T17:35:42.440Z,90.70
2018-12-01T17:38:17.176Z,90.70
2018-12-01T17:41:27.091Z,90.70
2018-12-01T17:44:01.663Z,90.60
2018-12-01T17:46:30.194Z,90.60
2018-12-01T17:48:58.738Z,90.50
2018-12-01T17:51:27.281Z,90.50
2018-12-01T17:53:57.336Z,90.60
2018-12-01T17:56:26.271Z,90.60
2018-12-01T17:58:54.769Z,90.60
2018-12-01T18:01:23.471Z,90.50
2018-12-01T18:03:51.957Z,90.70
2018-12-01T18:06:20.443Z,90.70
2018-12-01T18:08:48.973Z,90.70
2018-12-01T18:11:18.345Z,90.70
2018-12-01T18:13:47.653Z,90.80
2018-12-01T18:16:16.148Z,90.80
2018-12-01T18:18:45.183Z,90.90
2018-12-01T18:21:13.750Z,91.00
2018-12-01T18:23:42.421Z,91.00
2018-12-01T18:26:10.999Z,91.10
2018-12-01T18:28:45.562Z,91.20
2018-12-01T18:31:18.783Z,91.30
2018-12-01T18:33:49.834Z,91.40
2018-12-01T18:36:18.667Z,91.40
2018-12-01T18:38:50.354Z,91.60
2018-12-01T18:41:19.802Z,91.60
2018-12-01T18:43:48.355Z,91.80
2018-12-01T18:46:17.517Z,92.00
2018-12-01T18:48:46.627Z,92.10
2018-12-01T18:51:15.911Z,92.20
2018-12-01T18:53:44.485Z,92.30
2018-12-01T18:56:13.029Z,92.70
2018-12-01T18:58:42.225Z,92.90
2018-12-01T19:01:12.055Z,92.90
2018-12-01T19:03:40.676Z,92.80
2018-12-01T19:06:09.944Z,92.80
2018-12-01T19:08:39.193Z,92.80
2018-12-01T19:11:08.366Z,92.80
2018-12-01T19:13:36.909Z,92.90
2018-12-01T19:16:05.924Z,92.80
2018-12-01T19:18:34.718Z,92.80
2018-12-01T19:21:03.700Z,92.80
2018-12-01T19:23:32.359Z,92.90
2018-12-01T19:26:00.944Z,92.90
2018-12-01T19:28:30.369Z,93.00
2018-12-01T19:30:58.893Z,93.20
2018-12-01T19:33:27.540Z,93.20
2018-12-01T19:35:56.830Z,93.50
2018-12-01T19:38:29.422Z,93.60
2018-12-01T19:40:59.637Z,93.90
2018-12-01T19:43:28.179Z,94.10
2018-12-01T19:45:56.829Z,94.30
2018-12-01T19:48:25.550Z,94.30
2018-12-01T19:50:54.491Z,94.50
2018-12-01T19:53:23.074Z,94.50
2018-12-01T19:55:53.915Z,94.50
2018-12-01T19:58:23.975Z,94.50
2018-12-01T20:00:54.905Z,94.40
2018-12-01T20:03:24.554Z,94.40
2018-12-01T20:05:53.079Z,94.50
2018-12-01T20:08:22.865Z,94.50
2018-12-01T20:11:00.603Z,94.40
2018-12-01T20:13:36.400Z,94.40
2018-12-01T20:16:37.975Z,94.50
2018-12-01T20:19:07.569Z,94.60
2018-12-01T20:21:36.298Z,94.90
2018-12-01T20:24:06.202Z,95.10
2018-12-01T20:26:34.734Z,95.40
2018-12-01T20:29:03.252Z,95.50
2018-12-01T20:31:32.287Z,95.80
2018-12-01T20:34:01.994Z,95.80
2018-12-01T20:36:42.140Z,96.00
2018-12-01T20:39:13.421Z,96.00
2018-12-01T20:41:41.947Z,96.10
2018-12-01T20:44:10.539Z,96.00
2018-12-01T20:46:39.195Z,96.00
2018-12-01T20:49:08.188Z,96.10
2018-12-01T20:51:36.813Z,96.20
2018-12-01T20:54:08.002Z,96.20
2018-12-01T20:56:37.683Z,96.40
2018-12-01T20:59:06.261Z,96.50
2018-12-01T21:01:35.330Z,96.70
2018-12-01T21:04:03.911Z,96.80
2018-12-01T21:06:32.438Z,96.90
2018-12-01T21:09:01.230Z,97.00
2018-12-01T21:11:29.777Z,97.10
2018-12-01T21:13:58.351Z,97.20
2018-12-01T21:16:26.872Z,97.20
2018-12-01T21:18:56.605Z,97.30
2018-12-01T21:21:25.162Z,97.60
2018-12-01T21:23:53.703Z,97.30
2018-12-01T21:26:22.244Z,97.40
2018-12-01T21:28:52.156Z,97.30
2018-12-01T21:31:22.027Z,97.20
2018-12-01T21:33:55.507Z,97.10
2018-12-01T21:36:24.032Z,97.00
2018-12-01T21:38:52.576Z,97.00
2018-12-01T21:41:21.502Z,97.00
2018-12-01T21:43:50.121Z,97.10
2018-12-01T21:46:18.651Z,97.20
2018-12-01T21:48:47.192Z,97.20
2018-12-01T21:51:16.483Z,97.20
2018-12-01T21:53:47.920Z,97.50
2018-12-01T21:56:22.032Z,97.20
2018-12-01T21:58:51.020Z,97.20
2018-12-01T22:01:19.744Z,97.30
2018-12-01T22:03:48.295Z,97.30
2018-12-01T22:06:19.527Z,97.30
2018-12-01T22:08:48.818Z,97.30
2018-12-01T22:11:17.726Z,97.30
2018-12-01T22:13:46.291Z,97.20
2018-12-01T22:16:15.251Z,97.20
2018-12-01T22:18:44.036Z,97.10
2018-12-01T22:21:12.601Z,96.90
2018-12-01T22:23:41.099Z,96.90
2018-12-01T22:26:09.594Z,96.80
2018-12-01T22:28:38.649Z,96.70
2018-12-01T22:31:07.553Z,96.60
2018-12-01T22:33:36.099Z,96.60
2018-12-01T22:36:04.652Z,96.40
2018-12-01T22:38:33.996Z,96.30
2018-12-01T22:41:02.478Z,96.20
2018-12-01T22:43:31.002Z,96.10
2018-12-01T22:45:59.587Z,96.20
2018-12-01T22:48:28.091Z,96.00
2018-12-01T22:50:56.600Z,95.90
2018-12-01T22:53:26.243Z,95.90
2018-12-01T22:55:54.744Z,95.90
2018-12-01T22:58:23.274Z,95.90
2018-12-01T23:00:57.847Z,95.90
2018-12-01T23:03:27.556Z,95.80
2018-12-01T23:05:56.090Z,95.80
2018-12-01T23:08:25.771Z,95.80
2018-12-01T23:10:54.699Z,95.80
2018-12-01T23:13:23.348Z,95.80
2018-12-01T23:15:52.536Z,95.80
2018-12-01T23:18:23.280Z,95.80
2018-12-01T23:20:51.760Z,95.80
2018-12-01T23:23:20.529Z,95.80
2018-12-01T23:25:49.027Z,95.80
2018-12-01T23:28:17.518Z,95.70
2018-12-01T23:30:49.502Z,95.80
2018-12-01T23:33:22.220Z,95.80
2018-12-01T23:35:50.885Z,95.80
2018-12-01T23:38:19.506Z,95.80
2018-12-01T23:40:49.034Z,95.80
2018-12-01T23:43:17.560Z,95.70
2018-12-01T23:45:46.303Z,95.70
2018-12-01T23:48:14.790Z,95.70
2018-12-01T23:50:46.126Z,95.70
2018-12-01T23:53:15.822Z,95.70
2018-12-01T23:55:44.378Z,95.70
2018-12-01T23:58:12.931Z,95.80
